ホーチミン の空港の天気 - METARとTAF

タンソンニャット国際空港 (ホーチミン) ( VVTS / SGN ) - ベトナム ホーチミン市
飛行場実況気象(Metar)
観測時間03/26 13:30 +07 (03/26 06:30 UTC)
風向・風速南南東 4m/s
視程10km以上
天気現象
全天の4割程度の雲 雲底高度 610m
気温37℃
湿度35%
気圧1009hPa
METARVVTS 260630Z 15008KT 040V210 9999 SCT020 37/19 Q1009 NOSIG
過去の天気等 Google飛行場航空写真 Wunderground天気予報

過去48時間のMETAR

飛行場予報(TAF)
発表時間: 3/26 12:00 +07 (3/26 05:00 UTC)
予報対象時間: 26日13時 +07 ~ 27日19時 +07
風向・風速南南東 5m/s
視程10km以上
全天の4割程度の雲 雲底高度 610m
TAF VVTS 260500Z 2606/2712 15010KT 9999 SCT020